Longbranch, Washington
Current Conditions -  °F | °C
As of 7:25 AM on Monday 24 Nov 2014 (Local Time) from KTIW Reporting Station
Scattered Clouds Scattered Clouds  
Wind Chill: 41°   Ceiling: Unl
Heat Index: 41°   Visibility: 9mi
Dew Point: 40°   Wind: 3mph
Humidity: 96%   Direction: 160°SSE
Pressure: 30.34"   Gusts: NA
Location:  47.21°N, 122.76°W
Report Text: KTIW 241525Z AUTO 16003KT 9SM SCT002 05/04 A3034 RMK AO2 T00500044
Loading
Personal Weather Stations






























Interactive Weather Map New forecast layout! Learn more

10-Day Weather Forecast

Advertisements
Track Severe Weather on mobile